Time;durP1;ratioP1;P1;durP2;ratioP2;P2;SDS_P1;SDS_P2;PMS_P1;PMS_P2;Temp;Humidity;BMP_temperature;BMP_pressure;BME280_temperature;BME280_humidity;BME280_pressure;Samples;Min_cycle;Max_cycle;Signal;HPM_P1;HPM_P2
2022/01/18 00:00:47;;;;;;;6.05;0.30;;;;;;;4.66;54.39;103512.56;5028474;28;20037;-71
2022/01/18 00:03:15;;;;;;;7.82;1.08;;;;;;;4.70;54.47;103528.22;5034224;28;20053;-71
2022/01/18 00:05:49;;;;;;;10.18;0.47;;;;;;;4.71;54.92;103532.56;5026030;28;20033;-71
2022/01/18 00:08:16;;;;;;;8.65;0.75;;;;;;;4.67;55.30;103524.66;5027371;28;20053;-71
2022/01/18 00:10:42;;;;;;;10.32;1.63;;;;;;;4.75;55.10;103534.41;5044348;28;20048;-70
2022/01/18 00:13:23;;;;;;;5.20;0.45;;;;;;;4.89;54.13;103523.56;5027260;28;20041;-71
2022/01/18 00:18:29;;;;;;;12.35;0.93;;;;;;;4.48;55.48;103534.53;5024931;28;20053;-71
2022/01/18 00:21:16;;;;;;;11.00;0.95;;;;;;;4.59;54.83;103534.81;5027909;28;20051;-71
2022/01/18 00:23:42;;;;;;;12.07;0.80;;;;;;;4.45;55.53;103538.72;5026018;28;20044;-70
2022/01/18 00:26:12;;;;;;;8.23;0.95;;;;;;;4.19;56.86;103537.16;5027767;28;20033;-71
2022/01/18 00:28:38;;;;;;;18.52;1.35;;;;;;;4.54;56.12;103536.38;5026300;28;20056;-72
2022/01/18 00:36:27;;;;;;;15.00;1.67;;;;;;;5.03;54.41;103545.50;5029653;28;20036;-73
2022/01/18 00:38:54;;;;;;;8.63;0.47;;;;;;;5.07;54.40;103552.53;5026202;28;20047;-71
2022/01/18 00:41:22;;;;;;;13.88;0.82;;;;;;;5.02;55.04;103554.16;5034549;28;20247;-72
2022/01/18 00:43:49;;;;;;;14.90;2.30;;;;;;;5.11;54.69;103554.38;5026861;28;20041;-71
2022/01/18 00:46:15;;;;;;;10.18;1.88;;;;;;;5.17;54.82;103548.50;5043317;28;20463;-72
2022/01/18 00:48:41;;;;;;;16.85;2.08;;;;;;;5.14;54.46;103549.25;5041934;28;20107;-71
2022/01/18 00:51:11;;;;;;;24.23;1.45;;;;;;;4.96;55.01;103559.16;5029481;28;20486;-72
2022/01/18 00:53:38;;;;;;;23.23;2.65;;;;;;;5.11;54.89;103559.56;5016599;28;20076;-72
2022/01/18 00:58:42;;;;;;;17.38;2.17;;;;;;;5.02;54.14;103555.00;5024732;28;20075;-72
2022/01/18 01:01:09;;;;;;;14.70;2.35;;;;;;;4.95;53.98;103562.59;5026957;28;20112;-72
2022/01/18 01:03:35;;;;;;;24.88;1.83;;;;;;;4.80;54.72;103568.22;5026392;28;20041;-69
2022/01/18 01:06:01;;;;;;;15.90;1.65;;;;;;;4.68;55.00;103568.75;5028396;28;20617;-71
2022/01/18 01:08:27;;;;;;;15.90;2.40;;;;;;;4.63;56.07;103568.63;5029419;28;20787;-71
2022/01/18 01:10:53;;;;;;;24.40;2.63;;;;;;;4.70;56.09;103561.91;5027474;28;20037;-69
2022/01/18 01:13:19;;;;;;;27.48;2.17;;;;;;;4.68;56.34;103563.56;5031420;28;20049;-72
2022/01/18 01:18:42;;;;;;;15.30;2.30;;;;;;;4.96;56.18;103557.44;5041375;28;20502;-71
2022/01/18 01:34:51;;;;;;;32.90;4.18;;;;;;;5.24;56.09;103563.34;5042218;28;20037;-70
2022/01/18 01:45:09;;;;;;;30.58;3.65;;;;;;;5.22;55.78;103570.22;5041342;28;20036;-70
2022/01/18 01:47:38;;;;;;;29.00;3.40;;;;;;;5.33;55.83;103581.75;5024121;28;20367;-72
2022/01/18 01:50:06;;;;;;;29.42;2.97;;;;;;;5.43;55.27;103578.50;5025520;28;20474;-72
2022/01/18 01:52:31;;;;;;;22.38;3.03;;;;;;;5.45;55.39;103582.03;5022150;28;20041;-72
2022/01/18 01:54:57;;;;;;;28.40;2.55;;;;;;;5.43;55.61;103588.03;5026703;28;20028;-72
2022/01/18 01:57:23;;;;;;;31.27;3.47;;;;;;;5.34;56.25;103580.88;5026016;28;20533;-72
2022/01/18 01:59:49;;;;;;;17.83;2.28;;;;;;;5.56;55.79;103594.41;5025239;28;20028;-72
2022/01/18 02:02:17;;;;;;;18.42;2.90;;;;;;;5.52;55.82;103585.66;5026223;28;20457;-71
2022/01/18 02:04:43;;;;;;;24.17;2.38;;;;;;;5.51;55.87;103586.50;5025194;28;20029;-71
2022/01/18 02:07:08;;;;;;;20.65;3.28;;;;;;;5.16;57.30;103578.69;5024476;28;20037;-70
2022/01/18 02:09:34;;;;;;;17.42;3.33;;;;;;;5.47;56.22;103579.47;5040872;28;20039;-71
2022/01/18 02:12:01;;;;;;;28.98;2.45;;;;;;;5.36;56.64;103578.34;5025925;28;20036;-72
2022/01/18 02:14:29;;;;;;;30.75;4.03;;;;;;;5.53;56.27;103583.97;5041108;28;20069;-71
2022/01/18 02:22:24;;;;;;;22.17;3.25;;;;;;;5.68;55.81;103581.72;5025308;28;20049;-67
2022/01/18 02:24:50;;;;;;;24.75;2.45;;;;;;;5.64;55.91;103577.31;5037669;28;20043;-67
2022/01/18 02:27:15;;;;;;;23.70;2.80;;;;;;;5.79;55.42;103571.59;5039237;28;20045;-68
2022/01/18 02:29:44;;;;;;;21.80;2.03;;;;;;;5.70;55.75;103569.66;5025577;28;20064;-66
2022/01/18 02:32:10;;;;;;;22.85;2.47;;;;;;;5.81;55.15;103575.97;5023858;28;20053;-72
2022/01/18 02:34:36;;;;;;;34.17;3.58;;;;;;;5.61;55.94;103572.94;5023910;28;20500;-71
2022/01/18 02:37:04;;;;;;;23.70;2.95;;;;;;;5.88;54.81;103574.38;5040577;28;20041;-71
2022/01/18 02:39:30;;;;;;;26.92;4.13;;;;;;;5.94;54.59;103576.25;5024284;28;20044;-71
2022/01/18 02:42:03;;;;;;;24.20;3.13;;;;;;;5.86;55.17;103569.19;5022485;28;20041;-71
2022/01/18 02:44:29;;;;;;;21.85;2.60;;;;;;;5.88;54.85;103567.50;5023514;28;20037;-72
2022/01/18 02:46:55;;;;;;;15.02;1.80;;;;;;;5.63;55.54;103560.84;5007407;28;20034;-71
2022/01/18 02:49:21;;;;;;;25.13;3.08;;;;;;;5.69;55.21;103560.13;5025868;28;20103;-71
2022/01/18 02:51:47;;;;;;;17.35;1.60;;;;;;;5.68;54.69;103566.13;5024027;28;20049;-71
2022/01/18 02:54:15;;;;;;;21.85;2.45;;;;;;;5.50;55.31;103571.75;5022965;28;20079;-73
2022/01/18 02:56:45;;;;;;;21.02;2.35;;;;;;;5.30;55.66;103563.53;5025791;28;20112;-72
2022/01/18 02:59:21;;;;;;;19.50;2.22;;;;;;;5.08;56.01;103564.69;5019774;28;20511;-72
2022/01/18 03:04:42;;;;;;;19.80;2.28;;;;;;;4.98;56.30;103563.53;5039444;28;20064;-71
2022/01/18 03:07:09;;;;;;;25.08;1.88;;;;;;;4.98;56.47;103568.72;5025912;28;20424;-70
2022/01/18 03:09:38;;;;;;;28.90;2.53;;;;;;;4.91;56.42;103565.94;5038558;28;20026;-73
2022/01/18 03:12:06;;;;;;;23.88;2.88;;;;;;;4.95;56.57;103573.84;5024762;28;20045;-71
2022/01/18 03:14:32;;;;;;;32.60;2.95;;;;;;;4.96;55.84;103570.41;5039866;28;20036;-71
2022/01/18 03:16:57;;;;;;;18.20;2.15;;;;;;;4.91;55.40;103578.91;5023402;28;20084;-73
2022/01/18 03:19:23;;;;;;;23.60;2.60;;;;;;;4.46;57.51;103584.53;5025371;28;20045;-72
2022/01/18 03:21:55;;;;;;;18.42;2.60;;;;;;;4.71;56.26;103578.31;5013196;28;20032;-72
2022/01/18 03:29:36;;;;;;;27.17;2.10;;;;;;;4.50;57.11;103576.88;5036359;28;20064;-72
2022/01/18 03:32:03;;;;;;;23.33;1.80;;;;;;;4.54;56.74;103572.66;5028182;28;20851;-72
2022/01/18 03:34:28;;;;;;;20.15;2.47;;;;;;;4.47;56.23;103571.59;5024918;28;20336;-72
2022/01/18 03:36:54;;;;;;;15.98;1.27;;;;;;;4.45;56.21;103580.16;5021694;28;20395;-72
2022/01/18 03:39:20;;;;;;;22.52;3.05;;;;;;;4.36;56.39;103581.66;5023580;28;20123;-72
2022/01/18 03:41:55;;;;;;;15.00;1.60;;;;;;;4.10;57.49;103590.38;5025998;28;20083;-72
2022/01/18 03:44:22;;;;;;;16.88;2.50;;;;;;;4.30;56.85;103590.97;5041627;28;20040;-71
2022/01/18 03:46:49;;;;;;;13.60;1.52;;;;;;;4.31;57.03;103597.88;5023068;28;20034;-72
2022/01/18 03:49:17;;;;;;;18.08;1.90;;;;;;;4.27;56.47;103586.53;5027408;28;20463;-71
2022/01/18 03:51:45;;;;;;;24.20;2.47;;;;;;;4.13;57.02;103585.28;5014865;28;20030;-70
2022/01/18 03:54:13;;;;;;;23.13;1.98;;;;;;;4.01;57.94;103590.97;5025479;28;20500;-70
2022/01/18 03:56:41;;;;;;;19.02;2.05;;;;;;;4.07;57.62;103585.94;5028853;28;20041;-70
2022/01/18 03:59:06;;;;;;;26.60;2.58;;;;;;;4.09;57.81;103594.63;5042809;28;20045;-70
2022/01/18 04:01:32;;;;;;;26.35;2.55;;;;;;;3.98;58.42;103594.34;5042955;28;20074;-70
2022/01/18 04:03:59;;;;;;;17.45;1.55;;;;;;;3.97;58.33;103587.38;5028072;28;20045;-70
2022/01/18 04:06:24;;;;;;;21.50;1.90;;;;;;;4.07;58.24;103587.66;5009913;28;20643;-72
2022/01/18 04:08:50;;;;;;;30.60;3.63;;;;;;;3.88;58.96;103587.09;5027140;28;20041;-71
2022/01/18 04:11:18;;;;;;;31.63;1.88;;;;;;;3.92;59.15;103599.31;5028174;28;20033;-71
2022/01/18 04:13:46;;;;;;;21.63;1.15;;;;;;;4.05;58.98;103600.59;5040021;28;20547;-71
2022/01/18 04:16:11;;;;;;;19.25;2.05;;;;;;;4.07;58.80;103591.13;5028909;28;20029;-71
2022/01/18 04:18:56;;;;;;;12.90;1.20;;;;;;;3.94;58.78;103596.75;5027220;28;20041;-71
2022/01/18 04:26:56;;;;;;;14.10;1.70;;;;;;;4.22;57.71;103603.66;5026500;28;20052;-71
2022/01/18 04:29:22;;;;;;;17.88;1.50;;;;;;;4.17;58.06;103606.13;5027228;28;20045;-71
2022/01/18 04:31:47;;;;;;;27.80;2.15;;;;;;;4.46;56.94;103607.84;5026970;28;20029;-73
2022/01/18 04:34:13;;;;;;;16.08;1.42;;;;;;;4.30;57.57;103609.97;5026733;28;20033;-71
2022/01/18 04:36:41;;;;;;;19.48;1.67;;;;;;;4.48;56.15;103613.94;5028253;28;20480;-69
2022/01/18 04:39:06;;;;;;;19.90;1.92;;;;;;;4.31;56.65;103619.47;5025273;28;20465;-69
2022/01/18 04:41:34;;;;;;;28.48;2.38;;;;;;;4.34;56.72;103622.19;5027668;28;20025;-69
2022/01/18 04:49:12;;;;;;;10.13;0.85;;;;;;;4.33;56.61;103606.59;5025402;28;20044;-67
2022/01/18 04:51:41;;;;;;;12.18;1.00;;;;;;;4.31;56.52;103614.28;5042024;28;20120;-68
2022/01/18 04:54:11;;;;;;;16.35;1.80;;;;;;;4.16;57.42;103621.59;5025238;28;20044;-68
2022/01/18 04:59:09;;;;;;;21.08;2.78;;;;;;;4.48;56.57;103619.13;5027522;28;23299;-68
2022/01/18 05:01:37;;;;;;;19.77;1.98;;;;;;;4.37;56.70;103623.97;5041571;28;20033;-70
2022/01/18 05:04:02;;;;;;;21.85;3.13;;;;;;;4.44;57.08;103631.09;5025729;28;20065;-71
2022/01/18 05:06:28;;;;;;;17.83;2.05;;;;;;;4.46;57.14;103628.56;5028668;28;20478;-71
2022/01/18 05:08:54;;;;;;;24.30;1.73;;;;;;;4.49;57.11;103620.88;5041431;28;20045;-71
2022/01/18 05:11:22;;;;;;;16.15;1.52;;;;;;;4.46;57.37;103625.97;5041362;28;20051;-71
2022/01/18 05:21:29;;;;;;;24.30;2.72;;;;;;;4.72;56.70;103624.09;5041531;28;20629;-69
2022/01/18 05:23:55;;;;;;;13.75;1.40;;;;;;;4.83;56.27;103627.88;5026617;28;20401;-69
2022/01/18 05:26:21;;;;;;;21.92;3.05;;;;;;;4.77;56.79;103638.97;5026713;28;20045;-69
2022/01/18 05:28:46;;;;;;;17.48;0.93;;;;;;;4.81;56.50;103640.81;5024885;28;20059;-71
2022/01/18 05:31:12;;;;;;;14.98;1.75;;;;;;;4.91;56.20;103628.16;5027978;28;20268;-71
2022/01/18 05:33:42;;;;;;;16.33;1.88;;;;;;;5.04;55.90;103636.28;5015650;28;20076;-71
2022/01/18 05:36:08;;;;;;;12.10;2.97;;;;;;;5.07;55.39;103638.09;5043199;28;20114;-71
2022/01/18 05:38:35;;;;;;;14.25;2.45;;;;;;;5.03;55.55;103633.66;5009906;28;20048;-71
2022/01/18 05:41:02;;;;;;;13.15;1.52;;;;;;;4.81;56.13;103634.72;5022523;28;20589;-71
2022/01/18 05:43:32;;;;;;;10.32;1.30;;;;;;;5.14;55.70;103645.19;5013060;28;20426;-70
2022/01/18 05:46:01;;;;;;;12.00;1.10;;;;;;;5.20;55.56;103647.97;5007475;28;20476;-72
2022/01/18 05:48:26;;;;;;;16.27;2.45;;;;;;;5.21;55.65;103643.63;5004570;28;20045;-70
2022/01/18 05:50:54;;;;;;;9.10;1.75;;;;;;;5.29;55.53;103646.47;4994257;28;20040;-72
2022/01/18 05:53:22;;;;;;;13.27;1.77;;;;;;;5.28;55.02;103642.09;5001556;28;20549;-71
2022/01/18 05:55:50;;;;;;;16.60;1.10;;;;;;;5.32;55.46;103637.03;5005755;28;20037;-72
2022/01/18 05:58:15;;;;;;;14.65;1.58;;;;;;;5.24;55.11;103643.75;5002994;28;20133;-72
2022/01/18 06:00:43;;;;;;;12.13;1.25;;;;;;;5.30;55.30;103648.19;5010031;28;20037;-73
2022/01/18 06:03:14;;;;;;;15.95;2.00;;;;;;;5.32;55.12;103651.72;4985717;28;20049;-74
2022/01/18 06:08:24;;;;;;;20.83;2.17;;;;;;;5.35;55.04;103641.44;5019797;28;20045;-72
2022/01/18 06:10:52;;;;;;;11.93;2.80;;;;;;;5.41;54.87;103646.75;5007285;28;20038;-71
2022/01/18 06:13:21;;;;;;;17.15;1.77;;;;;;;5.39;54.70;103648.44;5021754;28;20061;-71
2022/01/18 06:15:48;;;;;;;17.98;2.47;;;;;;;5.44;54.72;103646.88;5021371;28;20214;-71
2022/01/18 06:18:14;;;;;;;15.52;2.25;;;;;;;5.49;54.44;103655.63;5006708;28;20038;-71
2022/01/18 06:20:40;;;;;;;14.82;2.38;;;;;;;5.37;54.70;103655.28;5017872;28;20399;-71
2022/01/18 06:23:06;;;;;;;23.10;3.10;;;;;;;5.39;54.95;103664.91;5005404;28;20113;-71
2022/01/18 06:25:31;;;;;;;15.10;2.88;;;;;;;5.45;54.60;103677.13;5006280;28;20033;-72
2022/01/18 06:27:56;;;;;;;9.05;1.95;;;;;;;5.29;54.90;103670.66;5019317;28;20449;-70
2022/01/18 06:30:22;;;;;;;15.55;1.60;;;;;;;5.42;54.64;103670.16;5003475;28;20018;-70
2022/01/18 06:32:48;;;;;;;8.45;1.30;;;;;;;5.39;54.65;103670.09;5004535;28;20402;-69
2022/01/18 06:35:14;;;;;;;12.35;1.13;;;;;;;5.33;54.48;103671.66;5005850;28;20038;-69
2022/01/18 06:37:43;;;;;;;13.52;1.25;;;;;;;5.40;54.47;103676.16;5019209;28;20381;-69
2022/01/18 06:40:10;;;;;;;9.30;0.50;;;;;;;5.46;54.53;103676.31;5006030;28;20193;-70
2022/01/18 06:42:36;;;;;;;8.75;1.27;;;;;;;5.24;54.86;103672.28;4990236;28;20051;-70
2022/01/18 06:45:02;;;;;;;17.73;0.98;;;;;;;5.37;54.91;103669.16;5007208;28;20033;-70
2022/01/18 06:47:30;;;;;;;11.68;1.25;;;;;;;5.38;54.37;103670.91;5002587;28;20064;-70
2022/01/18 06:49:55;;;;;;;11.57;1.48;;;;;;;5.29;54.70;103672.41;5008458;28;20025;-74
2022/01/18 06:52:21;;;;;;;3.63;0.90;;;;;;;5.32;54.48;103677.66;5004839;28;20498;-74
2022/01/18 06:54:47;;;;;;;13.13;1.35;;;;;;;5.35;54.39;103682.94;5001727;28;20479;-70
2022/01/18 06:57:12;;;;;;;6.20;0.80;;;;;;;5.31;54.85;103676.78;5001903;28;20291;-70
2022/01/18 06:59:38;;;;;;;12.25;1.27;;;;;;;5.37;54.86;103682.13;5003999;28;20390;-71
2022/01/18 07:02:06;;;;;;;9.65;1.40;;;;;;;5.20;54.97;103683.38;5009644;28;20132;-70
2022/01/18 07:04:32;;;;;;;11.68;1.27;;;;;;;5.29;54.37;103677.56;5001902;28;20585;-72
2022/01/18 07:06:57;;;;;;;8.35;1.08;;;;;;;5.13;54.75;103666.78;5003477;28;20037;-72
2022/01/18 07:09:23;;;;;;;9.77;0.70;;;;;;;5.08;54.90;103663.19;5004023;28;20045;-72
2022/01/18 07:11:54;;;;;;;6.22;0.75;;;;;;;5.00;54.82;103662.09;5019252;28;20030;-69
2022/01/18 07:14:23;;;;;;;7.53;0.80;;;;;;;5.02;54.97;103673.38;5018838;28;20033;-71
2022/01/18 07:16:49;;;;;;;5.40;0.95;;;;;;;5.06;54.59;103672.66;4994174;28;20030;-71
2022/01/18 07:19:17;;;;;;;9.88;0.82;;;;;;;5.10;54.63;103666.72;5003664;28;20533;-73
2022/01/18 07:21:49;;;;;;;5.80;0.55;;;;;;;5.06;54.94;103675.22;5020236;28;20068;-71
2022/01/18 07:24:18;;;;;;;6.55;1.23;;;;;;;5.10;54.85;103677.09;5006376;28;20038;-72
2022/01/18 07:26:46;;;;;;;12.23;0.88;;;;;;;5.11;55.06;103676.22;5009754;28;20049;-72
2022/01/18 07:29:13;;;;;;;10.45;1.50;;;;;;;5.14;54.89;103671.13;5022034;28;20458;-71
2022/01/18 07:31:41;;;;;;;4.60;0.82;;;;;;;5.08;55.33;103670.97;5023698;28;20049;-69
2022/01/18 07:34:09;;;;;;;6.97;0.50;;;;;;;5.12;55.02;103677.09;5007918;28;20038;-70
2022/01/18 07:36:36;;;;;;;6.82;1.15;;;;;;;5.14;55.54;103683.22;5013911;28;20033;-70
2022/01/18 07:39:02;;;;;;;16.58;1.35;;;;;;;5.01;55.83;103687.16;5023151;28;20106;-71
2022/01/18 07:41:30;;;;;;;10.77;0.95;;;;;;;4.87;55.67;103686.75;5010590;28;20117;-70
2022/01/18 07:43:55;;;;;;;4.10;0.30;;;;;;;5.05;55.59;103689.88;5024299;28;20042;-70
2022/01/18 07:46:23;;;;;;;11.07;0.98;;;;;;;5.05;55.57;103700.25;5015596;28;20521;-70
2022/01/18 07:48:48;;;;;;;9.95;0.70;;;;;;;4.99;55.93;103704.41;5004149;28;20049;-71
2022/01/18 07:51:16;;;;;;;7.68;0.57;;;;;;;4.93;56.07;103705.09;5006531;28;20474;-71
2022/01/18 07:53:41;;;;;;;10.90;0.70;;;;;;;4.97;55.99;103711.28;5013203;28;20445;-70
2022/01/18 07:56:07;;;;;;;7.47;0.77;;;;;;;5.21;55.58;103703.28;5009284;28;20038;-71
2022/01/18 07:58:34;;;;;;;12.00;0.73;;;;;;;5.19;55.46;103708.44;4992018;28;20033;-71
2022/01/18 08:01:00;;;;;;;9.52;0.77;;;;;;;5.28;55.16;103713.00;5007011;28;20088;-71
2022/01/18 08:03:28;;;;;;;5.18;0.50;;;;;;;5.42;54.97;103710.78;5011218;28;20040;-71
2022/01/18 08:05:59;;;;;;;9.63;1.10;;;;;;;5.07;55.84;103718.47;5007212;28;20041;-70
2022/01/18 08:08:27;;;;;;;6.78;0.98;;;;;;;5.40;55.22;103715.94;5004346;28;20125;-70
2022/01/18 08:10:54;;;;;;;7.30;0.70;;;;;;;5.40;54.99;103715.06;5007655;28;20033;-71
2022/01/18 08:13:24;;;;;;;9.68;1.92;;;;;;;5.37;55.06;103723.63;5005178;28;20164;-71
2022/01/18 08:15:58;;;;;;;11.17;0.83;;;;;;;5.24;55.25;103717.22;5020334;28;20124;-71
2022/01/18 08:18:24;;;;;;;7.72;1.65;;;;;;;5.43;55.02;103712.53;4997227;28;20077;-70
2022/01/18 08:20:50;;;;;;;10.60;3.15;;;;;;;5.20;55.30;103715.38;5012208;28;20125;-71
2022/01/18 08:23:17;;;;;;;8.65;2.65;;;;;;;5.40;55.47;103718.53;5008623;28;20514;-70
2022/01/18 08:25:44;;;;;;;7.68;3.65;;;;;;;5.23;55.53;103718.06;5006311;28;20098;-70
2022/01/18 08:28:09;;;;;;;7.63;0.73;;;;;;;5.45;54.65;103716.91;5003325;28;20046;-70
2022/01/18 08:30:35;;;;;;;4.55;0.30;;;;;;;5.49;54.99;103720.50;5006518;28;20116;-70
2022/01/18 08:33:00;;;;;;;7.20;0.43;;;;;;;5.58;54.46;103712.94;5004405;28;20414;-71
2022/01/18 08:35:26;;;;;;;3.10;0.30;;;;;;;5.62;54.27;103714.78;5003251;28;20050;-70
2022/01/18 08:37:54;;;;;;;10.70;0.60;;;;;;;5.79;54.00;103712.63;5002259;28;20045;-70
2022/01/18 08:40:19;;;;;;;4.35;0.50;;;;;;;5.74;53.97;103710.75;4994737;28;20075;-70
2022/01/18 08:42:45;;;;;;;5.25;0.40;;;;;;;5.79;53.92;103707.44;5003273;28;20442;-71
2022/01/18 08:45:11;;;;;;;5.60;0.93;;;;;;;5.86;53.38;103711.09;5007901;28;20045;-70
2022/01/18 08:47:37;;;;;;;1.60;0.10;;;;;;;5.90;53.45;103706.81;5005498;28;20056;-71
2022/01/18 08:50:04;;;;;;;0.35;0.10;;;;;;;5.65;54.29;103703.59;5007474;28;20064;-71
2022/01/18 08:52:30;;;;;;;2.13;0.22;;;;;;;4.86;56.48;103718.69;5006249;28;20069;-71
2022/01/18 08:54:55;;;;;;;2.45;0.20;;;;;;;4.96;55.32;103714.69;5005519;28;20178;-71
2022/01/18 08:57:21;;;;;;;1.15;0.25;;;;;;;5.35;54.54;103719.25;5002424;28;20441;-71
2022/01/18 08:59:49;;;;;;;0.28;0.15;;;;;;;5.42;54.26;103713.38;5004096;28;20025;-71
2022/01/18 09:02:15;;;;;;;2.78;0.10;;;;;;;5.52;53.63;103714.50;5003415;28;20665;-72
2022/01/18 09:04:41;;;;;;;3.90;0.05;;;;;;;5.89;53.52;103713.75;5007129;28;20044;-72
2022/01/18 09:07:08;;;;;;;2.67;0.10;;;;;;;5.52;53.35;103712.78;5002978;28;20045;-70
2022/01/18 09:09:41;;;;;;;0.55;0.10;;;;;;;5.50;53.47;103719.63;5018577;28;20310;-70
2022/01/18 09:12:13;;;;;;;2.17;0.40;;;;;;;5.41;53.39;103720.28;5002752;28;20045;-70
2022/01/18 09:14:39;;;;;;;0.98;0.10;;;;;;;5.58;53.09;103723.31;5018948;28;20605;-70
2022/01/18 09:17:05;;;;;;;1.77;0.10;;;;;;;5.57;53.67;103725.88;5019637;28;20610;-70
2022/01/18 09:19:31;;;;;;;0.52;0.10;;;;;;;4.73;53.72;103725.22;5006123;28;20405;-70
2022/01/18 09:21:58;;;;;;;0.13;0.00;;;;;;;5.28;53.03;103719.88;5003747;28;20033;-72
2022/01/18 09:24:24;;;;;;;2.20;0.10;;;;;;;5.22;53.30;103724.06;4995468;28;20407;-73
2022/01/18 09:26:50;;;;;;;1.80;1.00;;;;;;;5.58;51.94;103723.31;5022948;28;20038;-70
2022/01/18 09:29:18;;;;;;;11.88;5.00;;;;;;;5.39;52.62;103726.25;5004067;28;20104;-70
2022/01/18 09:31:43;;;;;;;1.90;0.30;;;;;;;4.95;54.36;103733.66;5010426;28;20548;-70
2022/01/18 09:34:09;;;;;;;1.60;0.60;;;;;;;5.47;53.20;103729.94;5001836;28;20030;-72
2022/01/18 09:36:37;;;;;;;1.02;0.20;;;;;;;5.45;52.81;103739.41;5005495;28;20029;-70
2022/01/18 09:39:04;;;;;;;4.22;0.20;;;;;;;5.09;54.07;103736.66;5018142;28;20487;-71
2022/01/18 09:41:34;;;;;;;3.50;0.20;;;;;;;5.44;53.75;103742.84;5003635;28;20506;-70
2022/01/18 09:44:01;;;;;;;3.17;0.32;;;;;;;5.29;54.04;103739.81;5000642;28;20441;-70
2022/01/18 09:46:27;;;;;;;3.45;1.05;;;;;;;5.36;54.00;103741.75;5005321;28;20651;-72
2022/01/18 09:48:56;;;;;;;2.67;0.50;;;;;;;5.14;53.91;103741.13;5000899;28;20449;-69
2022/01/18 09:51:23;;;;;;;2.15;0.32;;;;;;;5.20;54.12;103748.22;5002886;28;20068;-70
2022/01/18 09:53:49;;;;;;;4.35;0.25;;;;;;;5.00;55.32;103748.50;5016702;28;20033;-70
2022/01/18 09:56:17;;;;;;;6.80;1.30;;;;;;;5.63;54.16;103754.59;5000887;28;20568;-70
2022/01/18 09:58:44;;;;;;;8.68;0.50;;;;;;;5.78;53.93;103756.72;5017660;28;20693;-70
2022/01/18 10:01:10;;;;;;;6.22;1.02;;;;;;;5.61;53.77;103759.75;5001793;28;20061;-70
2022/01/18 10:03:41;;;;;;;1.17;0.28;;;;;;;5.67;53.25;103759.88;5007424;28;20619;-70
2022/01/18 10:06:08;;;;;;;2.72;0.30;;;;;;;4.86;55.42;103759.28;5003349;28;20021;-70
2022/01/18 10:08:41;;;;;;;3.22;0.45;;;;;;;5.20;54.20;103767.25;5011827;28;20096;-70
2022/01/18 10:11:16;;;;;;;3.25;0.50;;;;;;;4.83;55.90;103768.72;5005913;28;20507;-70
2022/01/18 10:13:45;;;;;;;1.65;0.52;;;;;;;4.98;55.29;103762.25;5019610;28;20345;-70
2022/01/18 10:16:16;;;;;;;5.07;0.88;;;;;;;4.99;55.29;103769.22;5006325;28;20037;-70
2022/01/18 10:18:50;;;;;;;7.13;0.68;;;;;;;4.67;56.40;103771.66;5003592;28;20041;-70
2022/01/18 10:21:33;;;;;;;3.08;0.22;;;;;;;4.30;55.61;103762.72;5003501;28;20061;-70
2022/01/18 10:24:20;;;;;;;3.20;0.50;;;;;;;5.02;54.32;103769.31;5007937;28;20045;-70
2022/01/18 10:26:48;;;;;;;0.47;0.10;;;;;;;5.13;53.48;103767.91;5004631;28;20134;-70
2022/01/18 10:29:15;;;;;;;0.65;0.10;;;;;;;4.81;53.19;103757.44;5017270;28;20057;-70
2022/01/18 10:37:04;;;;;;;0.73;0.10;;;;;;;5.21;52.58;103773.28;5004088;28;20486;-71
2022/01/18 10:39:35;;;;;;;3.13;0.10;;;;;;;4.55;54.26;103768.69;5005078;28;20056;-70
2022/01/18 10:42:13;;;;;;;0.80;0.17;;;;;;;4.74;53.48;103771.00;5005545;28;20026;-70
2022/01/18 10:44:39;;;;;;;1.90;0.15;;;;;;;5.62;51.40;103756.31;5007887;28;20137;-70
2022/01/18 10:47:04;;;;;;;0.70;0.13;;;;;;;5.67;51.21;103749.50;5004138;28;20128;-70
2022/01/18 10:49:39;;;;;;;6.95;0.20;;;;;;;5.79;50.28;103742.88;5008809;28;20040;-70
2022/01/18 10:52:18;;;;;;;3.30;0.10;;;;;;;6.03;50.25;103745.25;5004858;28;20061;-69
2022/01/18 10:54:56;;;;;;;4.93;0.20;;;;;;;5.76;51.09;103748.00;5002752;28;20037;-72
2022/01/18 10:57:32;;;;;;;3.28;0.10;;;;;;;4.96;53.19;103738.00;5009402;28;20046;-71
2022/01/18 11:00:11;;;;;;;2.15;0.40;;;;;;;5.30;52.26;103742.47;5005359;28;20030;-71
2022/01/18 11:02:41;;;;;;;2.08;0.10;;;;;;;5.63;51.61;103747.66;5004662;28;20041;-70
2022/01/18 11:05:27;;;;;;;2.65;0.20;;;;;;;5.18;51.27;103731.72;5008443;28;20053;-70
2022/01/18 11:07:55;;;;;;;7.85;0.85;;;;;;;5.72;50.35;103730.59;5021325;28;20064;-70
2022/01/18 11:10:23;;;;;;;1.80;0.20;;;;;;;6.13;49.68;103728.16;5025143;28;20039;-71
2022/01/18 11:13:03;;;;;;;0.88;0.28;;;;;;;6.34;49.26;103718.31;4991388;28;20048;-71
2022/01/18 11:15:31;;;;;;;2.22;0.10;;;;;;;5.16;51.32;103710.06;5009320;28;21175;-71
2022/01/18 11:17:59;;;;;;;1.17;0.30;;;;;;;5.48;50.39;103721.34;5013868;28;20045;-71
2022/01/18 11:20:31;;;;;;;7.60;0.20;;;;;;;6.08;49.27;103721.16;5008811;28;20041;-71
2022/01/18 11:22:59;;;;;;;5.53;0.50;;;;;;;5.66;50.49;103721.81;5007808;28;20041;-71
2022/01/18 11:25:28;;;;;;;3.55;0.80;;;;;;;6.06;49.82;103727.13;4999923;28;20033;-71
2022/01/18 11:27:56;;;;;;;5.78;0.13;;;;;;;6.38;49.38;103719.28;5007850;28;20091;-71
2022/01/18 11:30:24;;;;;;;1.75;0.28;;;;;;;6.65;48.79;103724.22;5009752;28;20060;-72
2022/01/18 11:32:53;;;;;;;4.22;0.30;;;;;;;6.15;49.25;103714.38;5007587;28;20453;-71
2022/01/18 11:35:28;;;;;;;11.40;0.40;;;;;;;5.80;50.04;103710.91;5006567;28;20124;-71
2022/01/18 11:38:18;;;;;;;7.03;0.50;;;;;;;6.18;50.04;103714.44;5005151;28;20034;-72
2022/01/18 11:40:52;;;;;;;4.43;0.30;;;;;;;5.82;50.58;103707.53;5006573;28;20087;-70
2022/01/18 11:43:45;;;;;;;3.30;0.28;;;;;;;6.25;49.55;103707.69;4995559;28;20080;-71
2022/01/18 11:46:32;;;;;;;5.65;0.50;;;;;;;6.33;49.06;103715.69;5004680;28;20057;-71
2022/01/18 11:49:06;;;;;;;5.95;0.30;;;;;;;6.24;49.28;103709.41;5022402;28;20740;-71
2022/01/18 11:51:43;;;;;;;3.58;0.50;;;;;;;6.27;49.38;103711.19;5019469;28;20477;-71
2022/01/18 11:57:01;;;;;;;6.80;0.50;;;;;;;6.20;48.73;103717.09;5019663;28;20111;-70
2022/01/18 11:59:39;;;;;;;13.25;0.65;;;;;;;6.21;48.82;103716.25;5006730;28;20033;-71
2022/01/18 12:02:11;;;;;;;6.18;0.30;;;;;;;5.96;49.46;103710.44;5005687;28;20120;-70
2022/01/18 12:04:49;;;;;;;6.90;0.70;;;;;;;6.25;49.14;103710.28;5004394;28;20092;-70
2022/01/18 12:07:36;;;;;;;3.75;0.50;;;;;;;6.06;49.39;103707.25;5003654;28;20151;-70
2022/01/18 12:10:31;;;;;;;6.00;1.80;;;;;;;6.29;49.34;103706.94;5010624;28;20034;-70
2022/01/18 12:13:01;;;;;;;3.75;0.60;;;;;;;6.17;49.51;103704.00;5003815;28;20092;-71
2022/01/18 12:15:32;;;;;;;6.13;1.63;;;;;;;5.91;49.73;103699.09;5003579;28;20481;-72
2022/01/18 12:18:02;;;;;;;;;;;;;;;5.89;50.06;103695.56;5007086;28;20168;-70
2022/01/18 12:20:46;;;;;;;4.03;0.88;;;;;;;6.53;49.31;103697.94;5011912;28;19928;-70
2022/01/18 12:23:13;;;;;;;4.57;1.63;;;;;;;6.39;49.09;103705.44;5004405;28;20049;-70
2022/01/18 12:25:56;;;;;;;5.35;1.23;;;;;;;6.06;50.05;103708.94;5004072;28;20060;-70
2022/01/18 12:28:50;;;;;;;;;;;;;;;6.50;49.49;103707.41;5007305;28;20193;-71
2022/01/18 12:34:48;;;;;;;9.20;2.15;;;;;;;5.49;50.78;103704.91;4995957;28;20046;-71
2022/01/18 12:37:27;;;;;;;5.22;1.90;;;;;;;5.87;49.79;103699.84;5004416;28;20112;-70
2022/01/18 12:39:57;;;;;;;10.10;1.63;;;;;;;5.88;49.23;103701.59;5006264;28;20029;-71
2022/01/18 12:45:37;;;;;;;8.15;1.17;;;;;;;6.15;48.37;103691.03;5005811;28;20038;-71
2022/01/18 12:48:07;;;;;;;10.73;0.95;;;;;;;5.75;49.03;103678.75;4978360;28;20149;-71
2022/01/18 12:50:38;;;;;;;;;;;;;;;5.78;48.97;103682.31;5010233;28;20273;-71
2022/01/18 12:53:16;;;;;;;7.72;0.85;;;;;;;5.64;49.26;103686.28;5020368;28;19945;-72
2022/01/18 12:56:03;;;;;;;9.60;1.20;;;;;;;6.09;48.87;103681.34;5006907;28;20029;-71
2022/01/18 12:58:38;;;;;;;6.13;0.50;;;;;;;6.26;48.59;103673.06;5007322;28;20057;-71
2022/01/18 13:01:12;;;;;;;3.80;0.73;;;;;;;5.85;49.59;103672.97;5007388;28;20092;-71
2022/01/18 13:03:40;;;;;;;4.05;0.85;;;;;;;6.30;49.03;103677.53;5011587;28;20041;-71